Time;durP1;ratioP1;P1;durP2;ratioP2;P2;SDS_P1;SDS_P2;PMS_P1;PMS_P2;Temp;Humidity;BMP_temperature;BMP_pressure;BME280_temperature;BME280_humidity;BME280_pressure;Samples;Min_cycle;Max_cycle;Signal;HPM_P1;HPM_P2
2023/05/31 00:01:00;;;;;;;4.70;2.00;;;;;;;19.41;52.88;100364.45;108510;1279;21980;-60
2023/05/31 00:03:26;;;;;;;6.40;2.60;;;;;;;19.36;52.85;100363.77;108437;1273;21994;-64
2023/05/31 00:05:52;;;;;;;4.20;2.10;;;;;;;19.32;53.06;100366.66;108454;1268;21993;-64
2023/05/31 00:08:18;;;;;;;5.70;2.10;;;;;;;19.28;53.05;100363.64;108398;1278;22037;-64
2023/05/31 00:10:44;;;;;;;4.80;2.50;;;;;;;19.24;52.99;100364.52;108521;1279;21988;-60
2023/05/31 00:13:10;;;;;;;6.00;2.20;;;;;;;19.21;53.00;100364.52;108465;1279;21982;-61
2023/05/31 00:15:36;;;;;;;4.50;2.30;;;;;;;19.18;53.14;100362.86;108540;1279;21979;-59
2023/05/31 00:18:01;;;;;;;7.10;2.30;;;;;;;19.29;52.63;100371.05;108568;1279;21992;-60
2023/05/31 00:20:27;;;;;;;3.70;2.30;;;;;;;19.28;52.62;100370.42;108392;1268;21981;-63
2023/05/31 00:22:52;;;;;;;4.80;2.60;;;;;;;19.15;53.01;100373.15;108524;1279;21982;-65
2023/05/31 00:25:18;;;;;;;7.80;2.30;;;;;;;19.11;53.10;100373.18;108556;1278;21985;-66
2023/05/31 00:27:45;;;;;;;3.80;1.90;;;;;;;19.09;53.15;100378.07;108606;1277;21962;-65
2023/05/31 00:30:12;;;;;;;5.80;2.30;;;;;;;19.10;53.25;100375.72;108430;1279;21952;-61
2023/05/31 00:32:37;;;;;;;4.00;2.00;;;;;;;19.09;53.29;100375.41;108571;1279;22329;-62
2023/05/31 00:35:03;;;;;;;5.50;2.10;;;;;;;19.07;53.29;100378.16;108364;1279;21967;-65
2023/05/31 00:37:29;;;;;;;4.80;2.20;;;;;;;19.07;53.35;100378.19;108384;1275;164728;-60
2023/05/31 00:39:55;;;;;;;3.00;1.80;;;;;;;19.07;53.49;100376.74;108431;1268;21986;-60
2023/05/31 00:42:20;;;;;;;6.20;2.10;;;;;;;19.06;53.50;100377.17;108516;1279;21992;-61
2023/05/31 00:44:46;;;;;;;6.80;2.10;;;;;;;19.03;53.46;100374.63;108590;1279;22450;-66
2023/05/31 00:47:11;;;;;;;5.00;2.20;;;;;;;19.01;53.64;100376.30;108486;1276;22445;-60
2023/05/31 00:49:37;;;;;;;6.00;2.10;;;;;;;19.02;53.56;100376.25;108455;1279;21979;-66
2023/05/31 00:52:04;;;;;;;4.20;2.10;;;;;;;18.98;53.37;100380.19;108430;1278;21990;-61
2023/05/31 00:54:30;;;;;;;4.90;2.10;;;;;;;18.93;53.60;100385.02;108512;1279;21987;-66
2023/05/31 00:56:55;;;;;;;4.30;2.20;;;;;;;18.92;53.68;100383.80;108502;1279;21974;-61
2023/05/31 00:59:21;;;;;;;3.70;2.10;;;;;;;18.92;53.49;100376.20;108427;1278;21979;-66
2023/05/31 01:01:46;;;;;;;8.60;2.10;;;;;;;18.88;53.54;100377.94;108561;1278;21975;-66
2023/05/31 01:04:12;;;;;;;4.30;2.20;;;;;;;18.85;53.51;100382.52;108565;1279;21977;-66
2023/05/31 01:06:39;;;;;;;8.50;2.40;;;;;;;18.84;53.61;100383.66;107703;1280;1002588;-61
2023/05/31 01:09:05;;;;;;;8.90;2.30;;;;;;;18.84;53.57;100387.17;108464;1278;22103;-67
2023/05/31 01:11:57;;;;;;;4.90;2.40;;;;;;;18.83;53.62;100385.64;108527;1274;23085;-66
2023/05/31 01:15:01;;;;;;;7.00;2.50;;;;;;;18.80;53.51;100396.98;108578;1280;21975;-61
2023/05/31 01:17:34;;;;;;;4.90;2.30;;;;;;;18.79;53.66;100400.92;108658;1272;22020;-60
2023/05/31 01:20:11;;;;;;;7.10;2.00;;;;;;;18.78;53.66;100399.77;108517;1280;23800;-67
2023/05/31 01:23:16;;;;;;;4.70;2.70;;;;;;;18.75;53.68;100400.61;108523;1279;22179;-64
2023/05/31 01:26:05;;;;;;;4.20;2.40;;;;;;;18.71;53.67;100404.15;108513;1271;22454;-67
2023/05/31 01:28:33;;;;;;;5.70;2.40;;;;;;;18.65;53.76;100404.59;108517;1271;21980;-60
2023/05/31 01:31:03;;;;;;;4.70;2.40;;;;;;;18.62;53.79;100405.83;108629;1280;21980;-60
2023/05/31 01:33:29;;;;;;;5.80;2.30;;;;;;;18.62;53.87;100409.02;108490;1280;21957;-67
2023/05/31 01:35:54;;;;;;;7.80;2.70;;;;;;;18.61;53.79;100408.33;108404;1272;21992;-60
2023/05/31 01:38:20;;;;;;;5.90;2.20;;;;;;;18.60;53.77;100411.57;108447;1278;21975;-66
2023/05/31 01:40:46;;;;;;;11.00;2.40;;;;;;;18.57;53.87;100410.44;108399;1280;21983;-60
2023/05/31 01:43:11;;;;;;;5.80;2.60;;;;;;;18.53;53.83;100412.23;108419;1275;21980;-60
2023/05/31 01:45:38;;;;;;;2.90;2.00;;;;;;;18.50;53.89;100412.19;108465;1278;22024;-66
2023/05/31 01:48:05;;;;;;;8.80;3.20;;;;;;;18.47;53.93;100410.02;108569;1280;21989;-67
2023/05/31 01:50:35;;;;;;;4.90;2.00;;;;;;;18.45;54.00;100409.22;108530;1272;22002;-60
2023/05/31 01:53:01;;;;;;;7.30;2.30;;;;;;;18.44;54.05;100412.98;108563;1274;21984;-60
2023/05/31 01:55:27;;;;;;;5.30;2.70;;;;;;;18.44;53.93;100419.05;108609;1273;24416;-67
2023/05/31 01:57:53;;;;;;;6.40;2.30;;;;;;;18.44;53.90;100416.19;108524;1274;21985;-66
2023/05/31 02:00:19;;;;;;;5.00;2.90;;;;;;;18.44;53.93;100416.89;108478;1276;21984;-67
2023/05/31 02:02:44;;;;;;;4.00;2.50;;;;;;;18.42;53.84;100414.34;108531;1271;21985;-66
2023/05/31 02:05:12;;;;;;;6.20;2.40;;;;;;;18.41;53.93;100420.41;108488;1275;22123;-61
2023/05/31 02:07:42;;;;;;;4.90;3.00;;;;;;;18.43;53.97;100424.61;108468;1276;22640;-60
2023/05/31 02:10:08;;;;;;;5.50;2.60;;;;;;;18.42;53.90;100420.90;108423;1280;21987;-61
2023/05/31 02:12:34;;;;;;;4.50;1.90;;;;;;;18.40;53.95;100417.94;108479;1278;21985;-60
2023/05/31 02:15:00;;;;;;;5.40;3.10;;;;;;;18.39;53.90;100417.10;108505;1278;21985;-61
2023/05/31 02:17:28;;;;;;;6.30;2.40;;;;;;;18.40;53.96;100418.34;108492;1270;21985;-67
2023/05/31 02:19:54;;;;;;;4.90;2.00;;;;;;;18.40;53.93;100419.73;108544;1278;22029;-66
2023/05/31 02:22:21;;;;;;;5.70;2.50;;;;;;;18.40;53.70;100420.81;108475;1280;21980;-61
2023/05/31 02:24:47;;;;;;;3.70;2.10;;;;;;;18.38;53.85;100423.73;108514;1280;21980;-67
2023/05/31 02:27:13;;;;;;;4.80;2.10;;;;;;;18.37;53.99;100429.11;108470;1279;21980;-60
2023/05/31 02:29:39;;;;;;;6.30;2.60;;;;;;;18.36;54.13;100427.73;108418;1269;21996;-61
2023/05/31 02:32:05;;;;;;;5.90;2.50;;;;;;;18.36;53.91;100433.08;108418;1275;21983;-67
2023/05/31 02:34:31;;;;;;;5.60;2.20;;;;;;;18.35;53.98;100431.49;108563;1269;21978;-62
2023/05/31 02:36:57;;;;;;;4.80;2.20;;;;;;;18.37;54.06;100433.91;108536;1273;21985;-61
2023/05/31 02:39:25;;;;;;;4.90;2.30;;;;;;;18.36;54.19;100435.22;108485;1274;21985;-68
2023/05/31 02:41:50;;;;;;;6.00;2.20;;;;;;;18.34;54.12;100437.97;108493;1270;22192;-67
2023/05/31 02:44:16;;;;;;;5.50;2.40;;;;;;;18.34;54.26;100440.27;108396;1270;22053;-61
2023/05/31 02:46:42;;;;;;;7.90;2.10;;;;;;;18.36;54.39;100442.84;108436;1273;21981;-60
2023/05/31 02:49:07;;;;;;;8.10;2.40;;;;;;;18.37;54.26;100441.55;108405;1276;21985;-65
2023/05/31 02:51:33;;;;;;;6.00;2.40;;;;;;;18.39;54.50;100444.11;108442;1277;22736;-65
2023/05/31 02:53:58;;;;;;;4.10;2.30;;;;;;;18.42;54.47;100442.04;108410;1276;22027;-59
2023/05/31 02:56:24;;;;;;;4.20;2.00;;;;;;;18.46;54.69;100441.86;107658;1270;1002270;-59
2023/05/31 02:58:52;;;;;;;6.90;2.50;;;;;;;18.51;54.73;100446.08;108421;1279;21982;-60
2023/05/31 03:01:18;;;;;;;5.70;2.00;;;;;;;18.57;54.80;100443.14;108439;1275;21978;-59
2023/05/31 03:03:44;;;;;;;4.40;2.20;;;;;;;18.63;54.76;100443.63;108416;1274;22039;-61
2023/05/31 03:06:12;;;;;;;8.90;2.20;;;;;;;18.68;54.97;100445.49;108440;1279;21983;-65
2023/05/31 03:08:37;;;;;;;6.00;2.80;;;;;;;18.74;55.10;100446.48;108560;1279;22759;-66
2023/05/31 03:11:03;;;;;;;6.60;2.50;;;;;;;18.83;55.34;100450.02;109442;1273;22019;-61
2023/05/31 03:13:29;;;;;;;6.70;2.60;;;;;;;18.89;55.41;100448.30;108473;1277;21983;-67
2023/05/31 03:15:55;;;;;;;6.10;2.30;;;;;;;18.96;55.46;100447.84;108455;1270;21995;-62
2023/05/31 03:18:21;;;;;;;3.40;2.20;;;;;;;19.03;55.31;100449.48;108499;1280;22060;-63
2023/05/31 03:20:46;;;;;;;8.10;2.40;;;;;;;19.10;55.55;100448.79;108457;1274;21984;-66
2023/05/31 03:23:12;;;;;;;8.70;2.30;;;;;;;19.17;55.48;100447.05;108451;1270;22017;-65
2023/05/31 03:25:38;;;;;;;6.00;2.40;;;;;;;19.28;56.23;100448.30;108426;1280;21991;-62
2023/05/31 03:28:03;;;;;;;11.90;2.80;;;;;;;19.41;56.01;100453.03;108508;1275;22028;-66
2023/05/31 03:30:29;;;;;;;7.50;2.60;;;;;;;19.52;56.04;100455.17;108441;1279;21992;-61
2023/05/31 03:32:55;;;;;;;4.10;2.50;;;;;;;19.61;56.06;100458.48;108468;1280;21982;-61
2023/05/31 03:35:20;;;;;;;6.70;2.80;;;;;;;19.70;56.15;100458.05;108461;1277;21989;-66
2023/05/31 03:37:46;;;;;;;7.10;2.30;;;;;;;19.79;56.15;100458.69;108483;1280;21990;-65
2023/05/31 03:40:12;;;;;;;9.60;2.80;;;;;;;19.90;57.30;100461.02;108469;1277;21982;-60
2023/05/31 03:42:38;;;;;;;22.90;4.70;;;;;;;20.16;58.45;100461.87;108513;1280;21992;-67
2023/05/31 03:45:04;;;;;;;20.30;3.50;;;;;;;20.44;58.39;100460.59;108444;1278;21993;-66
2023/05/31 03:47:30;;;;;;;13.40;2.70;;;;;;;20.72;58.11;100462.30;108518;1275;21989;-66
2023/05/31 03:49:56;;;;;;;8.80;2.60;;;;;;;20.91;57.93;100464.73;108440;1280;22059;-66
2023/05/31 03:52:21;;;;;;;8.40;2.80;;;;;;;21.09;57.54;100466.61;108502;1277;21990;-60
2023/05/31 03:54:47;;;;;;;5.50;2.70;;;;;;;21.24;57.21;100467.37;108490;1273;22014;-66
2023/05/31 03:57:13;;;;;;;7.30;2.90;;;;;;;21.37;56.74;100471.69;108468;1278;21989;-66
2023/05/31 03:59:38;;;;;;;7.50;2.90;;;;;;;21.45;56.47;100470.88;108447;1280;21985;-59
2023/05/31 04:02:04;;;;;;;16.60;3.40;;;;;;;21.52;56.17;100474.80;108447;1271;21999;-59
2023/05/31 04:04:30;;;;;;;10.40;2.90;;;;;;;21.56;55.72;100475.80;108481;1280;21978;-60
2023/05/31 04:06:56;;;;;;;13.70;3.30;;;;;;;21.59;55.59;100474.05;108419;1278;22759;-64
2023/05/31 04:09:23;;;;;;;15.70;3.40;;;;;;;21.63;55.52;100477.23;108463;1276;21985;-60
2023/05/31 04:11:49;;;;;;;6.00;2.80;;;;;;;21.65;55.34;100474.93;108457;1274;21981;-60
2023/05/31 04:14:15;;;;;;;7.50;2.90;;;;;;;21.68;55.24;100474.62;108480;1278;21947;-65
2023/05/31 04:16:41;;;;;;;7.80;3.20;;;;;;;21.71;55.30;100482.47;108443;1271;22008;-60
2023/05/31 04:19:07;;;;;;;7.80;2.80;;;;;;;21.76;55.34;100483.98;108433;1274;21989;-61
2023/05/31 04:21:33;;;;;;;7.10;3.00;;;;;;;21.81;55.24;100484.09;108442;1278;22438;-62
2023/05/31 04:23:58;;;;;;;8.80;2.60;;;;;;;21.83;55.12;100487.16;108460;1278;21980;-62
2023/05/31 04:26:25;;;;;;;12.80;2.70;;;;;;;21.88;55.01;100489.05;108482;1280;21992;-63
2023/05/31 04:28:54;;;;;;;12.40;2.90;;;;;;;21.93;54.97;100487.50;108488;1271;22016;-63
2023/05/31 04:31:20;;;;;;;5.00;2.50;;;;;;;21.99;54.92;100483.89;108478;1272;21985;-61
2023/05/31 04:33:48;;;;;;;7.20;2.70;;;;;;;22.05;54.80;100484.99;108498;1272;23657;-61
2023/05/31 04:36:14;;;;;;;5.70;3.00;;;;;;;22.11;54.70;100488.72;108517;1277;21998;-60
2023/05/31 04:38:41;;;;;;;10.20;2.90;;;;;;;22.20;54.79;100488.95;108524;1280;22035;-61
2023/05/31 04:41:08;;;;;;;6.50;3.30;;;;;;;22.29;54.52;100488.73;108771;1278;22057;-61
2023/05/31 04:43:34;;;;;;;7.00;2.90;;;;;;;22.33;53.83;100490.86;108411;1277;21982;-62
2023/05/31 04:46:00;;;;;;;7.30;2.80;;;;;;;22.33;53.56;100495.12;108362;1270;21983;-66
2023/05/31 04:48:27;;;;;;;7.00;2.80;;;;;;;22.35;53.68;100499.49;110621;1268;21904;-64
2023/05/31 04:50:54;;;;;;;9.60;4.10;;;;;;;22.37;53.93;100500.45;110384;1268;22047;-60
2023/05/31 04:53:22;;;;;;;9.50;3.00;;;;;;;22.42;54.19;100501.77;108513;1274;21979;-67
2023/05/31 04:55:48;;;;;;;5.60;2.80;;;;;;;22.54;54.21;100502.49;108549;1274;21958;-64
2023/05/31 04:58:13;;;;;;;4.60;2.60;;;;;;;22.65;53.57;100504.16;109373;1279;21980;-64
2023/05/31 05:00:39;;;;;;;5.60;2.60;;;;;;;22.73;53.51;100510.80;108440;1279;21983;-61
2023/05/31 05:03:05;;;;;;;4.60;2.40;;;;;;;22.79;53.11;100505.99;108471;1268;21985;-63
2023/05/31 05:05:31;;;;;;;5.20;2.70;;;;;;;22.86;53.17;100506.11;108467;1273;22024;-63
2023/05/31 05:07:57;;;;;;;6.70;2.70;;;;;;;22.95;53.20;100506.06;108473;1279;21982;-64
2023/05/31 05:10:23;;;;;;;4.20;2.30;;;;;;;23.05;53.06;100506.20;108454;1279;22004;-64
2023/05/31 05:12:49;;;;;;;4.80;2.40;;;;;;;23.15;53.00;100505.39;108466;1279;22000;-62
2023/05/31 05:15:14;;;;;;;7.70;2.50;;;;;;;23.26;53.31;100503.63;108467;1274;22152;-65
2023/05/31 05:17:41;;;;;;;4.40;2.50;;;;;;;23.43;53.76;100508.11;108452;1277;21978;-63
2023/05/31 05:20:10;;;;;;;7.10;2.90;;;;;;;23.67;54.01;100505.52;108333;1279;21978;-62
2023/05/31 05:22:35;;;;;;;7.90;3.00;;;;;;;23.91;53.82;100508.23;110649;1279;22234;-64
2023/05/31 05:25:01;;;;;;;9.30;3.90;;;;;;;24.12;54.03;100506.14;110624;1277;21867;-64
2023/05/31 05:27:27;;;;;;;6.20;3.30;;;;;;;24.36;54.29;100506.90;110605;1279;21893;-65
2023/05/31 05:29:53;;;;;;;5.40;2.90;;;;;;;24.55;53.90;100504.89;110630;1276;22395;-63
2023/05/31 05:32:18;;;;;;;9.00;4.10;;;;;;;24.72;54.13;100501.23;108441;1273;21982;-62
2023/05/31 05:34:44;;;;;;;9.50;3.20;;;;;;;24.89;53.90;100501.45;108429;1270;21986;-64
2023/05/31 05:37:10;;;;;;;5.30;2.60;;;;;;;25.02;53.31;100501.79;108464;1268;21982;-62
2023/05/31 05:39:35;;;;;;;12.00;4.90;;;;;;;25.14;53.12;100504.02;108399;1274;21989;-63
2023/05/31 05:42:02;;;;;;;5.80;3.00;;;;;;;25.27;53.27;100507.77;108459;1279;22034;-65
2023/05/31 05:44:28;;;;;;;8.30;3.30;;;;;;;25.45;53.36;100504.88;108486;1274;21983;-65
2023/05/31 05:46:54;;;;;;;5.50;2.70;;;;;;;25.67;53.25;100499.86;108605;1274;21977;-64
2023/05/31 05:49:20;;;;;;;4.60;2.30;;;;;;;25.88;53.03;100499.18;108489;1279;21989;-65
2023/05/31 05:51:45;;;;;;;7.50;2.70;;;;;;;26.05;52.16;100502.77;108487;1270;21986;-63
2023/05/31 05:54:11;;;;;;;5.40;2.60;;;;;;;26.14;51.81;100497.66;108506;1279;22600;-64
2023/05/31 05:56:36;;;;;;;4.70;2.80;;;;;;;26.25;52.08;100498.65;108435;1273;22022;-65
2023/05/31 05:59:02;;;;;;;6.40;2.60;;;;;;;26.42;52.37;100503.11;108413;1268;21989;-64
2023/05/31 06:01:28;;;;;;;3.90;2.40;;;;;;;26.60;52.29;100499.54;108483;1278;21989;-65
2023/05/31 06:03:55;;;;;;;5.10;3.00;;;;;;;26.80;52.26;100500.36;108501;1279;21995;-65
2023/05/31 06:06:21;;;;;;;6.00;2.60;;;;;;;27.04;52.30;100497.94;108483;1270;21983;-65
2023/05/31 06:08:47;;;;;;;6.50;2.80;;;;;;;27.23;51.37;100493.17;108354;1279;21982;-62
2023/05/31 06:11:15;;;;;;;3.90;2.60;;;;;;;27.36;51.05;100496.95;108441;1270;21980;-63
2023/05/31 06:13:42;;;;;;;5.00;2.90;;;;;;;27.44;51.10;100496.13;108422;1278;21942;-63
2023/05/31 06:16:08;;;;;;;4.90;2.70;;;;;;;27.51;50.87;100490.92;108385;1279;21985;-62
2023/05/31 06:18:34;;;;;;;5.90;3.00;;;;;;;27.65;51.06;100492.85;108522;1279;21980;-64
2023/05/31 06:21:00;;;;;;;4.70;2.90;;;;;;;27.83;51.15;100495.67;108523;1278;21977;-64
2023/05/31 06:23:26;;;;;;;5.70;2.80;;;;;;;28.08;51.72;100497.46;108699;1276;21978;-63
2023/05/31 06:25:54;;;;;;;5.00;3.30;;;;;;;28.32;50.60;100493.66;108561;1279;21979;-62
2023/05/31 06:28:20;;;;;;;4.90;3.20;;;;;;;28.40;49.24;100496.75;108591;1279;21980;-66
2023/05/31 06:30:46;;;;;;;7.00;3.10;;;;;;;28.38;49.21;100498.50;108424;1279;22011;-62
2023/05/31 06:33:12;;;;;;;4.40;2.80;;;;;;;28.42;49.92;100499.27;108408;1277;22025;-64
2023/05/31 06:35:39;;;;;;;4.80;2.80;;;;;;;28.48;49.58;100498.52;108407;1267;21985;-65
2023/05/31 06:38:05;;;;;;;7.00;3.10;;;;;;;28.53;49.43;100501.04;108519;1279;23062;-65
2023/05/31 06:40:31;;;;;;;5.20;3.10;;;;;;;28.60;49.39;100499.12;108428;1268;21980;-63
2023/05/31 06:42:56;;;;;;;4.30;2.90;;;;;;;28.73;49.30;100498.98;108376;1279;22027;-65
2023/05/31 06:45:24;;;;;;;4.30;2.50;;;;;;;28.88;49.55;100497.51;108363;1279;21978;-62
2023/05/31 06:47:49;;;;;;;4.00;3.00;;;;;;;29.10;49.70;100498.83;108485;1268;22036;-65
2023/05/31 06:50:15;;;;;;;5.00;3.20;;;;;;;29.30;49.23;100500.46;108404;1279;21992;-66
2023/05/31 06:52:41;;;;;;;6.20;3.40;;;;;;;29.50;48.97;100503.42;108479;1279;21994;-63
2023/05/31 06:55:08;;;;;;;5.00;3.00;;;;;;;29.76;48.23;100502.84;110643;1268;21874;-64
2023/05/31 06:57:34;;;;;;;5.80;3.20;;;;;;;29.94;48.10;100504.80;109699;1271;22063;-63
2023/05/31 06:59:59;;;;;;;5.20;2.90;;;;;;;30.07;47.75;100507.61;108402;1279;21978;-66
2023/05/31 07:02:27;;;;;;;4.50;3.20;;;;;;;30.16;47.46;100511.22;108379;1274;21979;-66
2023/05/31 07:04:56;;;;;;;4.60;3.40;;;;;;;30.22;47.25;100505.95;108382;1268;22022;-63
2023/05/31 07:07:22;;;;;;;4.60;3.00;;;;;;;30.26;45.72;100507.86;108413;1277;21978;-66
2023/05/31 07:09:50;;;;;;;3.80;3.20;;;;;;;30.32;46.39;100513.52;108392;1271;21991;-66
2023/05/31 07:12:16;;;;;;;5.00;3.30;;;;;;;30.47;46.80;100512.06;108445;1279;22005;-66
2023/05/31 07:14:42;;;;;;;4.40;2.90;;;;;;;30.63;46.99;100512.58;108478;1274;21981;-66
2023/05/31 07:17:08;;;;;;;3.50;2.40;;;;;;;30.76;46.45;100515.20;108420;1279;21999;-65
2023/05/31 07:19:43;;;;;;;4.40;2.80;;;;;;;30.79;45.48;100511.25;108442;1270;21986;-65
2023/05/31 07:22:09;;;;;;;4.90;3.20;;;;;;;30.83;45.73;100513.02;108458;1279;21987;-62
2023/05/31 07:24:35;;;;;;;5.30;2.80;;;;;;;31.02;46.25;100506.94;108401;1279;21977;-63
2023/05/31 07:27:00;;;;;;;6.80;4.90;;;;;;;31.26;46.15;100508.79;108428;1279;21977;-66
2023/05/31 07:29:26;;;;;;;7.00;3.80;;;;;;;31.49;45.81;100506.30;108340;1273;21977;-64
2023/05/31 07:31:51;;;;;;;4.40;2.80;;;;;;;31.75;45.41;100507.79;108388;1274;21992;-63
2023/05/31 07:34:17;;;;;;;6.00;3.60;;;;;;;31.95;44.17;100501.80;108395;1277;21985;-65
2023/05/31 07:36:43;;;;;;;7.10;4.00;;;;;;;32.17;44.31;100504.05;108434;1279;22036;-63
2023/05/31 07:39:10;;;;;;;4.60;3.10;;;;;;;32.36;42.83;100508.92;108458;1273;21992;-63
2023/05/31 07:41:36;;;;;;;4.40;2.90;;;;;;;32.41;42.05;100505.17;108767;1268;21975;-63
2023/05/31 07:44:02;;;;;;;3.90;2.80;;;;;;;32.42;41.73;100503.00;108454;1277;21977;-63
2023/05/31 07:46:28;;;;;;;3.80;2.80;;;;;;;32.51;41.62;100501.19;108426;1268;21977;-65
2023/05/31 07:48:54;;;;;;;6.60;3.00;;;;;;;32.66;42.01;100503.46;108534;1268;21979;-66
2023/05/31 07:51:20;;;;;;;4.30;2.90;;;;;;;32.92;41.74;100505.36;108508;1274;21987;-65
2023/05/31 07:53:46;;;;;;;4.50;3.00;;;;;;;33.05;41.09;100506.30;108393;1279;22033;-64
2023/05/31 07:56:13;;;;;;;6.20;3.40;;;;;;;33.14;40.27;100505.54;108412;1279;21997;-65
2023/05/31 07:58:39;;;;;;;4.50;2.60;;;;;;;33.17;39.99;100509.01;108405;1279;22948;-64
2023/05/31 08:01:05;;;;;;;8.80;3.50;;;;;;;33.21;39.45;100504.66;108460;1268;22447;-65
2023/05/31 08:03:31;;;;;;;3.40;2.70;;;;;;;33.26;40.08;100506.86;108455;1268;22185;-65
2023/05/31 08:05:56;;;;;;;5.40;2.80;;;;;;;33.35;39.42;100506.61;108373;1279;21975;-65
2023/05/31 08:08:23;;;;;;;5.50;3.20;;;;;;;33.51;40.08;100511.09;108375;1279;21979;-65
2023/05/31 08:10:49;;;;;;;5.90;3.70;;;;;;;33.73;39.68;100508.88;108405;1268;21995;-65
2023/05/31 08:13:15;;;;;;;4.70;3.20;;;;;;;33.84;39.11;100507.71;108576;1279;21972;-66
2023/05/31 08:15:41;;;;;;;4.00;2.70;;;;;;;33.94;39.53;100503.90;108377;1274;22002;-65
2023/05/31 08:18:06;;;;;;;6.60;2.70;;;;;;;34.11;38.44;100498.68;108413;1273;23062;-67
2023/05/31 08:20:34;;;;;;;4.30;2.80;;;;;;;34.28;36.53;100502.05;108417;1279;21992;-66
2023/05/31 08:22:59;;;;;;;7.50;2.60;;;;;;;34.32;36.64;100505.06;108516;1273;21988;-65
2023/05/31 08:25:25;;;;;;;5.30;3.10;;;;;;;34.36;37.86;100505.84;108402;1274;21982;-67
2023/05/31 08:27:51;;;;;;;5.60;3.20;;;;;;;34.46;36.58;100504.96;108406;1274;21987;-65
2023/05/31 08:30:17;;;;;;;3.90;3.20;;;;;;;34.62;36.48;100506.48;108413;1268;21988;-66
2023/05/31 08:32:42;;;;;;;4.10;3.60;;;;;;;34.84;37.51;100503.61;108443;1273;21986;-66
2023/05/31 08:35:08;;;;;;;4.20;3.00;;;;;;;35.09;36.72;100501.91;108378;1277;21982;-66
2023/05/31 08:37:35;;;;;;;13.40;4.70;;;;;;;35.29;35.51;100500.86;108635;1271;21978;-65
2023/05/31 08:40:03;;;;;;;5.90;3.10;;;;;;;35.40;35.20;100505.38;108885;1279;21980;-64
2023/05/31 08:42:39;;;;;;;4.10;3.30;;;;;;;35.43;34.87;100501.27;108592;1277;22157;-64
2023/05/31 08:45:07;;;;;;;4.10;3.30;;;;;;;35.55;35.06;100498.66;108756;1279;22764;-68
2023/05/31 08:47:44;;;;;;;4.40;3.40;;;;;;;35.80;35.09;100497.71;108606;1277;23809;-66
2023/05/31 08:50:10;;;;;;;7.00;3.90;;;;;;;36.14;35.82;100495.17;108513;1271;21985;-66
2023/05/31 08:52:36;;;;;;;5.30;3.70;;;;;;;36.40;35.43;100492.96;109225;1274;21986;-66
2023/05/31 08:55:03;;;;;;;5.80;4.90;;;;;;;36.61;34.72;100488.31;108407;1273;21990;-65
2023/05/31 08:57:29;;;;;;;8.00;6.50;;;;;;;36.74;33.36;100489.98;108338;1276;21985;-66
2023/05/31 08:59:55;;;;;;;10.90;9.00;;;;;;;36.68;32.88;100491.29;108477;1276;21965;-67
2023/05/31 09:02:20;;;;;;;8.60;6.30;;;;;;;36.60;32.77;100493.95;108497;1279;21983;-69
2023/05/31 09:04:47;;;;;;;6.30;5.40;;;;;;;36.50;32.80;100490.34;108582;1279;22001;-67
2023/05/31 09:07:13;;;;;;;7.90;6.10;;;;;;;36.45;32.68;100495.37;108441;1276;23657;-67
2023/05/31 09:09:40;;;;;;;7.30;6.10;;;;;;;36.45;32.25;100492.42;108424;1279;21982;-67
2023/05/31 09:12:06;;;;;;;8.40;6.80;;;;;;;36.48;32.39;100489.91;108549;1268;22022;-66
2023/05/31 09:14:34;;;;;;;8.40;7.50;;;;;;;36.69;32.67;100480.62;108952;1277;21976;-68
2023/05/31 09:17:00;;;;;;;9.40;8.50;;;;;;;36.94;32.76;100481.91;108871;1277;22170;-66
2023/05/31 09:19:26;;;;;;;11.80;9.00;;;;;;;37.15;32.13;100484.27;108649;1274;21985;-65
2023/05/31 09:21:52;;;;;;;13.60;8.90;;;;;;;37.25;30.89;100489.26;108744;1279;21986;-65
2023/05/31 09:24:19;;;;;;;10.30;9.20;;;;;;;37.21;30.68;100488.31;108768;1279;23132;-65
2023/05/31 09:26:48;;;;;;;10.00;8.80;;;;;;;37.04;29.97;100483.27;108374;1272;21982;-66
2023/05/31 09:29:15;;;;;;;11.80;8.10;;;;;;;36.75;30.55;100480.20;110604;1279;21908;-66
2023/05/31 09:31:41;;;;;;;9.30;8.50;;;;;;;36.56;31.15;100475.96;110613;1270;21826;-67
2023/05/31 09:34:23;;;;;;;8.60;7.80;;;;;;;36.60;31.51;100474.98;109269;1279;22147;-66
2023/05/31 09:36:49;;;;;;;9.20;8.40;;;;;;;36.75;31.02;100473.13;108572;1279;21977;-65
2023/05/31 09:39:15;;;;;;;12.50;11.20;;;;;;;36.81;31.15;100469.11;108453;1279;22017;-66
2023/05/31 09:41:41;;;;;;;9.70;8.80;;;;;;;36.73;30.24;100473.52;108472;1279;21992;-67
2023/05/31 09:44:08;;;;;;;8.40;7.60;;;;;;;36.59;30.32;100471.21;108392;1279;21980;-66
2023/05/31 09:46:34;;;;;;;9.40;8.20;;;;;;;36.51;30.53;100465.55;108514;1273;23055;-66
2023/05/31 09:49:01;;;;;;;10.80;9.20;;;;;;;36.59;30.53;100471.52;108463;1274;21979;-65
2023/05/31 09:51:27;;;;;;;11.10;10.20;;;;;;;36.76;30.68;100476.14;108476;1279;21988;-66
2023/05/31 09:53:55;;;;;;;10.30;8.30;;;;;;;36.92;30.35;100476.27;108433;1279;21987;-66
2023/05/31 09:56:22;;;;;;;11.00;10.00;;;;;;;37.08;30.23;100479.84;108513;1266;21980;-67
2023/05/31 09:58:49;;;;;;;12.40;10.40;;;;;;;37.23;30.09;100479.30;108486;1277;23158;-66
2023/05/31 10:01:15;;;;;;;14.70;13.40;;;;;;;37.29;28.94;100479.66;108386;1280;21983;-66
2023/05/31 10:03:41;;;;;;;12.80;11.60;;;;;;;37.37;29.37;100472.75;108441;1280;21988;-66
2023/05/31 10:06:07;;;;;;;12.00;10.60;;;;;;;37.42;29.13;100472.86;108523;1280;22030;-66
2023/05/31 10:08:33;;;;;;;13.50;12.20;;;;;;;37.38;29.01;100468.15;108454;1270;21981;-65
2023/05/31 10:11:00;;;;;;;9.50;8.60;;;;;;;37.46;29.59;100466.58;108407;1277;21988;-66
2023/05/31 10:13:27;;;;;;;15.10;13.60;;;;;;;37.65;29.38;100466.74;108455;1273;21981;-68
2023/05/31 10:15:55;;;;;;;12.40;11.20;;;;;;;37.71;29.05;100465.47;108515;1277;21985;-66
2023/05/31 10:18:23;;;;;;;17.30;15.50;;;;;;;37.81;29.17;100466.21;108731;1276;22035;-66
2023/05/31 10:20:55;;;;;;;12.50;11.20;;;;;;;37.98;29.29;100468.09;108577;1279;21977;-67
2023/05/31 10:23:27;;;;;;;18.30;16.50;;;;;;;38.10;28.61;100461.73;108659;1279;21982;-66
2023/05/31 10:26:15;;;;;;;18.00;16.30;;;;;;;38.13;28.23;100468.38;108460;1279;22189;-65
2023/05/31 10:29:19;;;;;;;16.50;14.90;;;;;;;38.09;28.55;100465.18;108464;1279;21979;-66
2023/05/31 10:31:48;;;;;;;16.70;15.10;;;;;;;38.25;28.62;100464.63;108400;1279;21991;-66
2023/05/31 10:34:22;;;;;;;20.50;18.40;;;;;;;38.26;27.97;100464.33;108426;1271;21990;-65
2023/05/31 10:36:52;;;;;;;18.90;17.00;;;;;;;38.21;27.92;100458.35;108443;1268;21992;-65
2023/05/31 10:39:22;;;;;;;22.10;20.10;;;;;;;38.13;28.01;100457.19;108479;1274;22000;-65
2023/05/31 10:41:49;;;;;;;;;;;;;;;38.14;27.31;100453.90;108477;1279;21963;-65
2023/05/31 10:44:18;;;;;;;13.90;11.50;;;;;;;37.95;26.98;100458.38;108428;1279;21985;-64
2023/05/31 10:46:45;;;;;;;20.00;13.80;;;;;;;37.79;26.53;100460.61;108460;1279;23048;-63
2023/05/31 10:49:11;;;;;;;22.90;17.10;;;;;;;37.73;27.55;100460.38;108471;1273;21980;-64
2023/05/31 10:51:46;;;;;;;14.80;12.30;;;;;;;37.79;27.77;100454.58;108492;1278;21980;-63
2023/05/31 10:54:20;;;;;;;18.20;16.60;;;;;;;37.94;28.19;100449.75;108482;1280;21982;-62
2023/05/31 10:56:55;;;;;;;13.30;12.30;;;;;;;38.09;27.72;100447.44;108490;1280;21988;-63
2023/05/31 10:59:27;;;;;;;18.10;16.40;;;;;;;38.34;27.76;100441.63;108477;1273;21989;-64
2023/05/31 11:01:54;;;;;;;22.30;20.00;;;;;;;38.60;28.08;100444.98;108445;1280;21982;-63
2023/05/31 11:04:24;;;;;;;20.90;18.80;;;;;;;38.67;27.96;100445.56;108458;1278;23605;-63
2023/05/31 11:07:18;;;;;;;18.80;17.10;;;;;;;38.58;28.02;100443.36;108516;1280;21982;-63
2023/05/31 11:09:56;;;;;;;22.30;20.20;;;;;;;38.33;27.61;100441.45;108553;1277;21986;-66
2023/05/31 11:12:33;;;;;;;26.60;24.20;;;;;;;37.94;26.75;100444.76;108518;1273;22156;-65
2023/05/31 11:15:00;;;;;;;20.50;18.60;;;;;;;37.55;27.01;100444.52;108512;1277;22034;-63